Radar AviationWeather DUATS TFRs Wunderground Accuweather Weather.com

Radar

TAFs

KCLE 211520Z 2115/2218 15010G20KT P6SM BKN200
   FM220300 18012KT P6SM -SHRA SCT002 OVC025
   FM221200 21016G24KT P6SM FEW005 BKN030
KDTW 211457Z 2115/2218 12012KT P6SM BKN060 BKN200
   FM211700 13015G28KT P6SM SCT025 BKN045 OVC090
     TEMPO 2118/2121 4SM -SHRA OVC025
   FM220100 16013G21KT 4SM -SHRA BKN025 BKN045
     TEMPO 2202/2204 2SM SHRA OVC015
   FM220600 20012G20KT P6SM SCT028
   FM221500 21015G25KT P6SM SCT030 BKN050
KFDY 211420Z 2114/2212 14015G25KT P6SM OVC005
   FM211500 14015G25KT P6SM BKN035
     TEMPO 2118/2122 -SHRA SCT005 OVC030
   FM212200 18012KT P6SM -SHRA SCT005 OVC030
   FM220400 21015G22KT P6SM SCT002 BKN015
KFWA 211402Z 2114/2212 14018G28KT P6SM OVC020
     TEMPO 2114/2117 3SM -SHRA OVC007
   FM211700 16025G35KT 3SM SHRA BR VCTS OVC009CB
   FM212200 19020G30KT P6SM VCSH OVC015
   FM220300 22015G25KT P6SM BKN050
KJXN 211141Z 2112/2212 10013KT P6SM BKN070
   FM211500 13013G23KT P6SM VCSH OVC050
   FM211700 14015G26KT 6SM -SHRA OVC040 WS020/15045KT
   FM211900 15018G30KT 3SM -SHRA BR OVC015 WS020/16050KT
   FM212300 18012G22KT P6SM SHRA BKN050
   FM220100 21012KT P6SM SCT050
KTOL 211129Z 2112/2212 12005KT P6SM BKN050 BKN250
   FM211500 14016G23KT P6SM BKN040 BKN170
     TEMPO 2118/2122 -SHRA SCT005 OVC030
   FM212200 19012G20KT P6SM -SHRA SCT005 OVC030
   FM220400 21015G22KT P6SM SCT002 BKN015

METARs

KDUH 211616Z AUTO 14008KT 10SM SCT065 19/13 A2981 RMK AO2 T01920133
KFWA 211613Z 13015G28KT 3SM RA BR FEW008 SCT065 OVC090 15/14 A2971 RMK AO2 PK WND 11028/1609 P0005 T01500139
KFDY 211607Z AUTO 15013G22KT 10SM FEW013 18/13 A2982 RMK AO2 T01780128
KJXN 211556Z 11012G21KT 10SM OVC070 16/12 A2979 RMK AO2 SLP088 T01560117
KDTW 211553Z 14010G23KT 7SM BKN070 OVC240 17/13 A2987 RMK AO2 SLP113 T01670128 $
KTDZ 211553Z AUTO 14016G24KT 10SM -RA SCT070 18/13 A2984 RMK AO2 RAB32 SLP103 P0000 T01830133
KTOL 211552Z 17007G17KT 10SM FEW016 BKN070 18/13 A2983 RMK AO2 SLP102 T01780128
KCLE 211551Z 13016G23KT 10SM BKN250 22/09 A2992 RMK AO2 SLP129 T02170094 $

Satellite

TFRs